Time;durP1;ratioP1;P1;durP2;ratioP2;P2;SDS_P1;SDS_P2;PMS_P1;PMS_P2;Temp;Humidity;BMP_temperature;BMP_pressure;BME280_temperature;BME280_humidity;BME280_pressure;Samples;Min_cycle;Max_cycle;Signal;HPM_P1;HPM_P2
2023/06/19 00:00:23;;;;;;;12.52;11.32;;;;;;;18.57;61.90;100767.53;7398966;19;20078;-67
2023/06/19 00:02:52;;;;;;;10.73;9.73;;;;;;;18.55;62.09;100764.09;7396306;19;20386;-67
2023/06/19 00:05:23;;;;;;;12.20;11.00;;;;;;;18.53;62.30;100771.31;7398345;19;20493;-67
2023/06/19 00:07:54;;;;;;;12.30;11.10;;;;;;;18.50;62.13;100772.34;7399195;19;20014;-67
2023/06/19 00:10:22;;;;;;;11.73;10.60;;;;;;;18.48;62.30;100768.06;7398358;19;20010;-67
2023/06/19 00:12:51;;;;;;;12.18;11.07;;;;;;;18.45;62.24;100762.91;7397848;19;20078;-67
2023/06/19 00:15:20;;;;;;;12.27;11.07;;;;;;;18.44;62.70;100763.84;7398407;19;20018;-68
2023/06/19 00:17:48;;;;;;;12.35;11.15;;;;;;;18.42;62.89;100763.09;7396891;19;20017;-67
2023/06/19 00:20:17;;;;;;;12.32;11.15;;;;;;;18.40;63.08;100761.34;7397897;19;20014;-67
2023/06/19 00:22:51;;;;;;;11.32;10.25;;;;;;;18.38;62.85;100757.91;7398178;19;20014;-67
2023/06/19 00:25:22;;;;;;;12.35;11.25;;;;;;;18.36;62.97;100761.59;7398031;19;20517;-67
2023/06/19 00:27:50;;;;;;;11.32;10.30;;;;;;;18.33;62.91;100759.97;7397809;19;20010;-67
2023/06/19 00:30:19;;;;;;;12.70;11.40;;;;;;;18.30;63.13;100765.47;7397635;19;20490;-67
2023/06/19 00:32:53;;;;;;;12.10;10.95;;;;;;;18.27;63.36;100773.56;7397848;19;20078;-66
2023/06/19 00:35:22;;;;;;;;;;;;;;;18.24;63.31;100771.09;7398944;19;20035;-68
2023/06/19 00:37:50;;;;;;;12.63;11.50;;;;;;;18.20;63.34;100775.72;7398254;19;19922;-67
2023/06/19 00:40:30;;;;;;;12.20;11.05;;;;;;;18.15;63.65;100775.09;7395911;19;20074;-69
2023/06/19 00:42:59;;;;;;;12.25;11.15;;;;;;;18.13;64.10;100770.81;7398378;19;20011;-67
2023/06/19 00:45:28;;;;;;;12.70;11.48;;;;;;;18.11;64.16;100770.03;7397935;19;20085;-67
2023/06/19 00:47:57;;;;;;;12.50;11.40;;;;;;;18.09;64.39;100769.25;7397435;19;20432;-67
2023/06/19 00:50:26;;;;;;;13.40;12.27;;;;;;;18.09;64.04;100766.59;7396963;19;20482;-67
2023/06/19 00:52:55;;;;;;;12.90;11.60;;;;;;;18.06;64.35;100757.00;7396988;19;20078;-67
2023/06/19 00:55:28;;;;;;;11.93;10.82;;;;;;;18.05;64.59;100757.94;7396835;19;20077;-67
2023/06/19 00:57:56;;;;;;;12.77;11.50;;;;;;;18.04;64.43;100759.72;7397158;19;20078;-67
2023/06/19 01:00:25;;;;;;;12.13;11.00;;;;;;;18.03;64.48;100758.03;7395250;19;20022;-67
2023/06/19 01:02:54;;;;;;;13.00;11.80;;;;;;;18.02;64.77;100753.66;7396652;19;20074;-67
2023/06/19 01:05:22;;;;;;;12.55;11.45;;;;;;;18.03;64.67;100757.16;7396855;19;20577;-67
2023/06/19 01:08:01;;;;;;;12.13;11.02;;;;;;;18.01;64.66;100757.25;7394916;19;20361;-67
2023/06/19 01:10:44;;;;;;;12.25;11.05;;;;;;;18.00;64.70;100757.34;7397082;19;20023;-67
2023/06/19 01:13:19;;;;;;;12.95;11.75;;;;;;;17.96;64.87;100756.63;7395839;19;20030;-66
2023/06/19 01:15:50;;;;;;;13.52;12.18;;;;;;;17.95;65.09;100759.38;7396531;19;20423;-66
2023/06/19 01:18:33;;;;;;;12.35;11.25;;;;;;;17.94;65.26;100753.19;7392303;19;20085;-66
2023/06/19 01:21:12;;;;;;;12.82;11.63;;;;;;;17.90;65.16;100749.81;7395143;19;20019;-66
2023/06/19 01:23:43;;;;;;;13.55;12.38;;;;;;;17.87;65.16;100741.16;7394854;19;20018;-65
2023/06/19 01:26:13;;;;;;;13.35;12.10;;;;;;;17.85;65.09;100743.03;7396139;19;20082;-66
2023/06/19 01:28:43;;;;;;;14.02;12.63;;;;;;;17.85;65.48;100745.69;7395983;19;20074;-65
2023/06/19 01:31:15;;;;;;;13.48;12.27;;;;;;;17.83;65.56;100739.59;7395710;19;20489;-66
2023/06/19 01:33:47;;;;;;;12.88;11.70;;;;;;;17.82;65.68;100738.75;7394160;19;20022;-66
2023/06/19 01:36:17;;;;;;;13.68;12.40;;;;;;;17.82;65.90;100732.56;7394467;19;20086;-66
2023/06/19 01:38:50;;;;;;;14.48;13.02;;;;;;;17.82;65.59;100721.94;7395723;19;20018;-66
2023/06/19 01:41:20;;;;;;;13.35;11.98;;;;;;;17.83;65.74;100724.53;7395539;19;20066;-66
2023/06/19 01:43:49;;;;;;;12.48;11.27;;;;;;;17.82;65.84;100719.28;7395038;19;20073;-65
2023/06/19 01:46:17;;;;;;;13.15;11.90;;;;;;;17.83;65.67;100715.72;7394778;19;20499;-66
2023/06/19 01:48:46;;;;;;;13.65;12.45;;;;;;;17.82;65.70;100708.69;7393784;19;20015;-66
2023/06/19 01:51:14;;;;;;;13.48;12.27;;;;;;;17.82;66.00;100712.22;7395024;19;20021;-65
2023/06/19 01:53:43;;;;;;;13.48;12.20;;;;;;;17.81;66.13;100714.94;7394564;19;20024;-66
2023/06/19 01:56:14;;;;;;;13.43;12.13;;;;;;;17.80;65.88;100710.56;7394922;19;20030;-66
2023/06/19 01:58:42;;;;;;;14.52;12.15;;;;;;;17.79;65.94;100704.38;7395247;19;20079;-66
2023/06/19 02:01:11;;;;;;;13.77;12.48;;;;;;;17.79;65.76;100707.03;7395857;19;20553;-68
2023/06/19 02:03:39;;;;;;;13.38;12.18;;;;;;;17.78;66.13;100705.34;7395260;19;20034;-67
2023/06/19 02:06:07;;;;;;;13.27;12.07;;;;;;;17.78;66.34;100705.34;7393621;19;20015;-66
2023/06/19 02:08:36;;;;;;;13.55;12.35;;;;;;;17.76;66.29;100701.91;7395387;19;20082;-66
2023/06/19 02:11:04;;;;;;;13.45;12.15;;;;;;;17.73;65.98;100694.09;7399685;19;20082;-67
2023/06/19 02:13:35;;;;;;;14.15;12.95;;;;;;;17.71;66.20;100691.53;7399408;19;20083;-66
2023/06/19 02:16:04;;;;;;;13.27;11.98;;;;;;;17.69;66.29;100690.78;7402643;19;20010;-66
2023/06/19 02:18:32;;;;;;;12.50;11.40;;;;;;;17.67;66.30;100687.34;7401765;19;20086;-66
2023/06/19 02:21:01;;;;;;;13.77;12.45;;;;;;;17.65;66.68;100691.00;7402663;19;20018;-66
2023/06/19 02:23:29;;;;;;;13.50;12.30;;;;;;;17.63;66.63;100691.09;7400806;19;20021;-66
2023/06/19 02:25:58;;;;;;;13.95;12.65;;;;;;;17.61;66.72;100687.66;7399144;19;20025;-65
2023/06/19 02:28:26;;;;;;;15.38;13.77;;;;;;;17.57;67.33;100680.78;7399098;19;20415;-72
2023/06/19 02:30:58;;;;;;;13.77;12.63;;;;;;;17.53;67.33;100687.22;7401543;19;20073;-67
2023/06/19 02:33:26;;;;;;;13.88;12.45;;;;;;;17.49;67.49;100683.84;7399341;19;20025;-67
2023/06/19 02:35:58;;;;;;;14.20;12.77;;;;;;;17.48;67.59;100686.56;7401196;19;20504;-66
2023/06/19 02:38:29;;;;;;;14.82;13.52;;;;;;;17.43;67.80;100685.00;7401959;19;20042;-67
2023/06/19 02:40:57;;;;;;;14.05;12.73;;;;;;;17.40;68.01;100689.59;7401691;19;20021;-69
2023/06/19 02:43:26;;;;;;;13.77;12.48;;;;;;;17.35;68.04;100687.22;7398696;19;20082;-67
2023/06/19 02:45:54;;;;;;;14.65;13.15;;;;;;;17.32;68.09;100690.00;7401160;19;20017;-68
2023/06/19 02:48:25;;;;;;;21.27;19.02;;;;;;;17.29;68.26;100684.00;7398884;19;20022;-68
2023/06/19 02:50:54;;;;;;;24.48;21.77;;;;;;;17.22;68.38;100684.31;7401054;19;20038;-68
2023/06/19 02:53:22;;;;;;;18.77;16.77;;;;;;;17.19;68.94;100694.22;7400347;19;20018;-67
2023/06/19 02:55:51;;;;;;;18.45;16.55;;;;;;;17.16;68.70;100686.41;7401155;19;20078;-66
2023/06/19 02:58:19;;;;;;;17.52;15.73;;;;;;;17.13;69.19;100687.44;7400971;19;20078;-67
2023/06/19 03:00:48;;;;;;;15.85;14.35;;;;;;;17.12;69.11;100685.72;7400998;19;20074;-67
2023/06/19 03:03:17;;;;;;;14.75;13.35;;;;;;;17.12;69.30;100692.81;7398131;19;20074;-67
2023/06/19 03:05:48;;;;;;;14.90;13.60;;;;;;;17.06;69.17;100684.25;7400345;19;20073;-67
2023/06/19 03:08:16;;;;;;;14.77;13.48;;;;;;;17.04;69.22;100691.41;7398892;19;20077;-67
2023/06/19 03:10:45;;;;;;;15.23;13.85;;;;;;;17.01;69.33;100694.22;7398128;19;20093;-66
2023/06/19 03:13:13;;;;;;;15.40;13.90;;;;;;;16.99;69.78;100690.78;7399451;19;20086;-67
2023/06/19 03:15:42;;;;;;;18.90;14.90;;;;;;;16.99;69.98;100690.78;7400681;19;20018;-67
2023/06/19 03:18:10;;;;;;;16.42;14.93;;;;;;;17.00;70.16;100687.19;7400015;19;20545;-68
2023/06/19 03:20:39;;;;;;;16.58;14.85;;;;;;;17.01;69.83;100688.91;7395839;19;20010;-67
2023/06/19 03:23:10;;;;;;;15.05;13.75;;;;;;;17.02;69.93;100689.75;7397681;19;20074;-67
2023/06/19 03:25:42;;;;;;;16.73;15.05;;;;;;;17.04;70.08;100686.09;7399666;19;20070;-67
2023/06/19 03:28:11;;;;;;;15.27;13.90;;;;;;;17.05;70.02;100686.97;7397350;19;20014;-68
2023/06/19 03:30:39;;;;;;;16.25;14.75;;;;;;;17.06;70.10;100686.88;7399621;19;20477;-68
2023/06/19 03:33:08;;;;;;;15.30;13.93;;;;;;;17.08;69.64;100684.16;7399442;19;20078;-67
2023/06/19 03:35:36;;;;;;;15.27;13.77;;;;;;;17.09;69.50;100686.72;7399818;19;20031;-67
2023/06/19 03:38:29;;;;;;;16.90;15.20;;;;;;;17.10;69.55;100685.78;7399725;19;20044;-67
2023/06/19 03:40:57;;;;;;;15.88;14.43;;;;;;;17.14;69.50;100696.25;7399487;19;20023;-67
2023/06/19 03:43:26;;;;;;;14.95;13.55;;;;;;;17.16;69.82;100694.38;7398274;19;20474;-68
2023/06/19 03:45:54;;;;;;;15.55;14.15;;;;;;;17.17;69.83;100694.28;7399297;19;20085;-66
2023/06/19 03:48:23;;;;;;;15.40;14.00;;;;;;;17.22;69.72;100691.41;7397596;19;20019;-65
2023/06/19 03:50:51;;;;;;;15.52;14.20;;;;;;;17.23;69.79;100679.88;7399525;19;20012;-67
2023/06/19 03:53:19;;;;;;;16.73;15.25;;;;;;;17.25;69.52;100670.91;7398481;19;20087;-66
2023/06/19 03:55:51;;;;;;;15.95;14.45;;;;;;;17.26;69.34;100666.44;7398851;19;20028;-67
2023/06/19 03:58:19;;;;;;;17.38;15.55;;;;;;;17.26;69.13;100666.44;7399428;19;20081;-66
2023/06/19 04:00:47;;;;;;;15.85;14.43;;;;;;;17.29;69.09;100676.91;7396747;19;20019;-67
2023/06/19 04:03:16;;;;;;;15.77;14.10;;;;;;;17.30;69.16;100673.34;7398042;19;20019;-67
2023/06/19 04:05:44;;;;;;;15.88;14.40;;;;;;;17.33;69.22;100675.81;7398419;19;20078;-67
2023/06/19 04:08:13;;;;;;;16.90;15.30;;;;;;;17.35;68.93;100676.59;7396506;19;20110;-67
2023/06/19 04:10:41;;;;;;;15.85;14.43;;;;;;;17.38;69.14;100676.44;7398457;19;20074;-67
2023/06/19 04:13:12;;;;;;;16.33;14.80;;;;;;;17.43;68.97;100692.13;7397623;19;20025;-67
2023/06/19 04:15:43;;;;;;;16.52;14.93;;;;;;;17.47;68.73;100684.88;7395531;19;20428;-67
2023/06/19 04:18:12;;;;;;;15.77;14.38;;;;;;;17.51;68.85;100681.13;7397665;19;20022;-67
2023/06/19 04:20:47;;;;;;;15.43;14.10;;;;;;;17.54;68.55;100681.81;7395574;19;20083;-66
2023/06/19 04:23:16;;;;;;;15.25;13.82;;;;;;;17.60;68.17;100685.94;7397437;19;20078;-67
2023/06/19 04:25:44;;;;;;;15.88;14.32;;;;;;;17.66;68.47;100688.25;7395775;19;20027;-67
2023/06/19 04:28:15;;;;;;;15.32;14.00;;;;;;;17.72;68.07;100698.56;7396000;19;20090;-67
2023/06/19 04:30:44;;;;;;;15.18;13.85;;;;;;;17.79;67.61;100695.59;7398504;19;20023;-67
2023/06/19 04:33:12;;;;;;;14.98;13.57;;;;;;;17.85;67.71;100696.09;7396117;19;20022;-67
2023/06/19 04:35:42;;;;;;;14.75;13.35;;;;;;;17.89;67.65;100702.13;7397518;19;20025;-68
2023/06/19 04:38:14;;;;;;;14.85;13.50;;;;;;;17.95;67.35;100701.81;7396556;19;20014;-66
2023/06/19 04:40:43;;;;;;;15.10;13.75;;;;;;;18.00;67.33;100702.44;7395291;19;20045;-67
2023/06/19 04:43:12;;;;;;;14.70;13.25;;;;;;;18.05;66.86;100712.81;7395210;19;20031;-67
2023/06/19 04:45:43;;;;;;;15.57;14.18;;;;;;;18.09;66.87;100708.19;7397428;19;20482;-67
2023/06/19 04:48:12;;;;;;;15.27;13.77;;;;;;;18.14;66.48;100716.78;7395664;19;20051;-66
2023/06/19 04:50:40;;;;;;;15.55;14.02;;;;;;;18.18;66.80;100713.84;7395528;19;20078;-67
2023/06/19 04:53:08;;;;;;;15.07;13.68;;;;;;;18.23;66.30;100711.81;7394228;19;20085;-67
2023/06/19 04:55:37;;;;;;;14.60;13.23;;;;;;;18.27;65.84;100712.50;7396989;19;20093;-67
2023/06/19 04:58:06;;;;;;;15.57;14.13;;;;;;;18.32;65.89;100715.75;7394379;19;20018;-66
2023/06/19 05:00:34;;;;;;;15.63;14.18;;;;;;;18.38;66.17;100722.53;7395597;19;20021;-66
2023/06/19 05:03:05;;;;;;;16.27;14.68;;;;;;;18.43;65.61;100722.31;7393800;19;20106;-66
2023/06/19 05:05:34;;;;;;;15.48;14.18;;;;;;;18.48;65.76;100709.63;7395910;19;20021;-66
2023/06/19 05:08:02;;;;;;;15.00;13.70;;;;;;;18.53;65.67;100720.84;7394728;19;20081;-67
2023/06/19 05:10:31;;;;;;;14.95;13.55;;;;;;;18.58;65.53;100715.25;7395483;19;20510;-67
2023/06/19 05:12:59;;;;;;;15.77;14.25;;;;;;;18.62;65.47;100714.16;7395107;19;20482;-67
2023/06/19 05:15:28;;;;;;;45.58;34.05;;;;;;;18.66;65.21;100707.72;7395570;19;20010;-66
2023/06/19 05:17:56;;;;;;;25.63;22.13;;;;;;;18.69;65.32;100707.53;7395505;19;20018;-67
2023/06/19 05:20:34;;;;;;;20.83;18.48;;;;;;;18.72;65.17;100702.06;7392950;19;20078;-66
2023/06/19 05:23:02;;;;;;;20.60;18.20;;;;;;;18.78;65.15;100703.50;7395013;19;20082;-67
2023/06/19 05:25:30;;;;;;;16.90;14.65;;;;;;;18.83;64.72;100690.81;7394248;19;20027;-67
2023/06/19 05:27:59;;;;;;;14.82;13.40;;;;;;;18.87;64.89;100692.38;7393951;19;20486;-67
2023/06/19 05:30:27;;;;;;;15.80;14.27;;;;;;;18.93;64.69;100693.84;7395225;19;20389;-67
2023/06/19 05:32:56;;;;;;;16.40;14.70;;;;;;;18.97;64.79;100692.69;7392535;19;20027;-67
2023/06/19 05:35:27;;;;;;;15.65;14.05;;;;;;;19.03;64.88;100701.19;7394934;19;20366;-67
2023/06/19 05:37:55;;;;;;;16.52;15.02;;;;;;;19.10;64.50;100698.19;7393371;19;20018;-68
2023/06/19 05:40:24;;;;;;;17.50;15.32;;;;;;;19.17;65.09;100702.19;7395319;19;20031;-68
2023/06/19 05:42:52;;;;;;;15.93;14.43;;;;;;;19.23;64.88;100704.47;7392363;19;20015;-68
2023/06/19 05:45:21;;;;;;;17.27;15.65;;;;;;;19.30;64.85;100705.00;7393745;19;20014;-68
2023/06/19 05:47:49;;;;;;;16.17;14.68;;;;;;;19.36;64.68;100708.16;7393319;19;20090;-66
2023/06/19 05:50:18;;;;;;;15.75;14.35;;;;;;;19.42;64.16;100706.91;7395225;19;20021;-64
2023/06/19 05:52:49;;;;;;;16.70;14.95;;;;;;;19.49;64.50;100712.75;7393482;19;20010;-68
2023/06/19 05:55:17;;;;;;;16.33;14.73;;;;;;;19.53;63.76;100706.28;7393977;19;20082;-67
2023/06/19 05:57:46;;;;;;;16.75;15.23;;;;;;;19.59;63.87;100695.28;7394975;19;20018;-67
2023/06/19 06:00:16;;;;;;;16.85;15.23;;;;;;;19.63;63.91;100691.47;7394742;19;20018;-67
2023/06/19 06:02:44;;;;;;;16.58;14.98;;;;;;;19.71;63.80;100693.66;7395074;19;20039;-68
2023/06/19 06:05:13;;;;;;;16.73;15.02;;;;;;;19.77;63.58;100695.09;7392681;19;20458;-67
2023/06/19 06:07:41;;;;;;;16.13;14.68;;;;;;;19.83;63.86;100695.59;7393663;19;20485;-67
2023/06/19 06:10:13;;;;;;;14.77;13.38;;;;;;;19.90;63.92;100703.22;7392682;19;20015;-67
2023/06/19 06:12:42;;;;;;;16.00;14.65;;;;;;;19.98;63.38;100715.09;7392925;19;20019;-68
2023/06/19 06:15:11;;;;;;;16.17;14.70;;;;;;;20.05;63.59;100709.41;7394440;19;20015;-67
2023/06/19 06:17:39;;;;;;;15.77;14.38;;;;;;;20.13;63.44;100699.13;7392424;19;20019;-67
2023/06/19 06:20:11;;;;;;;16.02;14.23;;;;;;;20.21;63.68;100693.31;7392224;19;20015;-66
2023/06/19 06:22:40;;;;;;;15.52;14.13;;;;;;;20.28;63.12;100699.97;7394986;19;20015;-67
2023/06/19 06:25:12;;;;;;;15.25;13.85;;;;;;;20.37;63.08;100693.19;7394167;19;20022;-66
2023/06/19 06:27:41;;;;;;;16.67;14.95;;;;;;;20.45;62.72;100698.91;7395122;19;20015;-68
2023/06/19 06:30:11;;;;;;;15.77;14.27;;;;;;;20.54;62.89;100711.63;7394537;19;20018;-69
2023/06/19 06:32:40;;;;;;;15.77;14.23;;;;;;;20.60;62.47;100708.56;7392291;19;20066;-68
2023/06/19 06:35:09;;;;;;;15.18;13.77;;;;;;;20.66;62.83;100710.84;7391396;19;20018;-69
2023/06/19 06:37:38;;;;;;;15.15;13.75;;;;;;;20.71;62.74;100713.22;7393268;19;20078;-69
2023/06/19 06:40:08;;;;;;;15.13;13.68;;;;;;;20.78;62.39;100727.03;7393519;19;20018;-68
2023/06/19 06:42:40;;;;;;;16.17;14.57;;;;;;;20.85;62.18;100725.66;7391098;19;20011;-67
2023/06/19 06:45:09;;;;;;;15.90;14.40;;;;;;;20.91;62.36;100732.41;7391826;19;20014;-68
2023/06/19 06:47:39;;;;;;;15.60;14.20;;;;;;;20.96;62.19;100731.13;7393083;19;20028;-67
2023/06/19 06:50:09;;;;;;;15.18;13.65;;;;;;;21.03;62.47;100741.41;7392633;19;20022;-68
2023/06/19 06:52:38;;;;;;;15.30;13.95;;;;;;;21.10;62.03;100740.88;7392894;19;20018;-67
2023/06/19 06:55:07;;;;;;;14.77;13.45;;;;;;;21.18;61.79;100744.88;7395262;19;20427;-68
2023/06/19 06:57:45;;;;;;;16.02;14.63;;;;;;;21.25;61.82;100733.69;7400488;19;20030;-68
2023/06/19 07:00:15;;;;;;;14.63;13.43;;;;;;;21.37;61.20;100736.47;7397927;19;20015;-70
2023/06/19 07:02:43;;;;;;;14.38;13.02;;;;;;;21.48;61.07;100734.81;7400630;19;20023;-70
2023/06/19 07:05:13;;;;;;;16.00;14.50;;;;;;;21.60;60.93;100733.16;7397688;19;20082;-69
2023/06/19 07:07:41;;;;;;;16.73;14.48;;;;;;;21.73;60.35;100734.97;7399755;19;20379;-68
2023/06/19 07:10:11;;;;;;;18.65;14.43;;;;;;;21.85;60.20;100742.16;7400111;19;20078;-69
2023/06/19 07:12:51;;;;;;;14.75;13.30;;;;;;;21.94;59.96;100738.81;7399077;19;20034;-68
2023/06/19 07:15:19;;;;;;;14.75;13.45;;;;;;;22.05;59.23;100737.22;7399560;19;20082;-68
2023/06/19 07:17:48;;;;;;;14.60;13.20;;;;;;;22.15;59.02;100748.94;7396898;19;20011;-67
2023/06/19 07:20:16;;;;;;;14.93;13.35;;;;;;;22.24;59.15;100742.97;7396416;19;20344;-68
2023/06/19 07:22:45;;;;;;;15.32;13.85;;;;;;;22.33;58.87;100744.13;7399580;19;20086;-69
2023/06/19 07:25:15;;;;;;;15.20;13.90;;;;;;;22.41;58.60;100738.28;7399216;19;20078;-69
2023/06/19 07:27:43;;;;;;;15.70;14.20;;;;;;;22.49;58.43;100748.41;7399279;19;20014;-68
2023/06/19 07:30:15;;;;;;;14.25;12.88;;;;;;;22.57;58.54;100749.56;7399208;19;20015;-68
2023/06/19 07:32:44;;;;;;;15.35;13.90;;;;;;;22.66;58.23;100752.53;7396960;19;20019;-68
2023/06/19 07:35:12;;;;;;;14.15;12.85;;;;;;;22.74;57.65;100755.50;7396746;19;20018;-69
2023/06/19 07:37:41;;;;;;;15.43;14.13;;;;;;;22.80;57.40;100752.38;7399363;19;20018;-69
2023/06/19 07:40:10;;;;;;;14.43;13.07;;;;;;;22.87;57.06;100750.94;7400031;19;20037;-69
2023/06/19 07:42:39;;;;;;;15.95;14.35;;;;;;;22.95;56.74;100750.41;7398909;19;20382;-69
2023/06/19 07:45:08;;;;;;;15.18;13.77;;;;;;;23.06;56.80;100752.28;7396704;19;20037;-67
2023/06/19 07:47:39;;;;;;;15.07;13.65;;;;;;;23.18;56.29;100747.88;7398632;19;20028;-67
2023/06/19 07:50:09;;;;;;;14.45;12.95;;;;;;;23.29;56.49;100742.56;7396870;19;20014;-67
2023/06/19 07:52:37;;;;;;;15.00;13.60;;;;;;;23.42;55.82;100739.81;7396406;19;20019;-68
2023/06/19 07:55:07;;;;;;;14.63;13.32;;;;;;;23.55;56.04;100745.06;7396598;19;20018;-68
2023/06/19 07:57:35;;;;;;;15.90;14.25;;;;;;;23.69;55.41;100749.38;7398606;19;20021;-69
2023/06/19 08:00:08;;;;;;;15.80;14.30;;;;;;;23.81;55.33;100744.88;7398761;19;20090;-69
2023/06/19 08:02:41;;;;;;;15.30;13.45;;;;;;;23.91;55.08;100728.00;7396134;19;20015;-69
2023/06/19 08:05:11;;;;;;;14.13;12.73;;;;;;;24.02;54.76;100726.28;7398752;19;20359;-69
2023/06/19 08:07:39;;;;;;;13.23;12.02;;;;;;;24.13;54.69;100722.78;7396134;19;20368;-68
2023/06/19 08:10:09;;;;;;;13.63;12.27;;;;;;;24.23;54.15;100719.22;7396384;19;20025;-69
2023/06/19 08:12:37;;;;;;;12.77;11.57;;;;;;;24.34;53.35;100726.41;7398124;19;20091;-69
2023/06/19 08:15:07;;;;;;;13.40;11.25;;;;;;;24.44;52.96;100726.53;7395930;19;20015;-68
2023/06/19 08:17:35;;;;;;;12.85;10.57;;;;;;;24.53;52.02;100728.47;7398110;19;20020;-69
2023/06/19 08:20:08;;;;;;;11.50;10.45;;;;;;;24.62;51.50;100731.34;7396635;19;20011;-69
2023/06/19 08:22:36;;;;;;;11.32;9.65;;;;;;;24.70;50.58;100728.94;7398347;19;20018;-69
2023/06/19 08:25:06;;;;;;;10.15;9.20;;;;;;;24.78;50.26;100729.19;7395254;19;20021;-67
2023/06/19 08:27:34;;;;;;;10.23;9.15;;;;;;;24.86;49.59;100728.53;7397640;19;20020;-68
2023/06/19 08:30:03;;;;;;;10.02;9.13;;;;;;;24.93;48.99;100729.72;7395857;19;20021;-69
2023/06/19 08:32:31;;;;;;;10.35;9.23;;;;;;;24.99;48.83;100725.69;7397435;19;20014;-69
2023/06/19 08:35:00;;;;;;;10.38;9.38;;;;;;;25.07;48.38;100728.56;7395138;19;20041;-69
2023/06/19 08:37:31;;;;;;;10.27;9.38;;;;;;;25.15;47.48;100735.97;7397628;19;20086;-70
2023/06/19 08:39:59;;;;;;;10.70;9.27;;;;;;;25.20;47.18;100740.00;7397330;19;20018;-69
2023/06/19 08:42:28;;;;;;;10.73;9.57;;;;;;;25.27;47.28;100734.94;7397422;19;20086;-69
2023/06/19 08:44:56;;;;;;;10.52;9.00;;;;;;;25.32;47.21;100743.47;7395406;19;20082;-70
2023/06/19 08:47:27;;;;;;;10.95;9.68;;;;;;;25.37;46.53;100745.81;7397294;19;20039;-69
2023/06/19 08:49:56;;;;;;;10.70;9.63;;;;;;;25.36;46.76;100753.03;7395702;19;20015;-67
2023/06/19 08:52:24;;;;;;;10.68;9.68;;;;;;;25.39;46.39;100745.66;7396703;19;20039;-68
2023/06/19 08:54:56;;;;;;;10.50;9.55;;;;;;;25.39;46.62;100743.84;7395027;19;20020;-67
2023/06/19 08:57:34;;;;;;;10.77;9.90;;;;;;;25.38;46.54;100750.19;7397011;19;20018;-69
2023/06/19 09:00:05;;;;;;;10.43;9.43;;;;;;;25.37;46.64;100740.44;7394863;19;20070;-69
2023/06/19 09:02:41;;;;;;;11.05;9.95;;;;;;;25.36;46.31;100749.47;7396014;19;20015;-69
2023/06/19 09:05:15;;;;;;;11.73;10.52;;;;;;;25.35;46.37;100748.59;7395895;19;20513;-69
2023/06/19 09:07:44;;;;;;;9.80;8.93;;;;;;;25.34;46.27;100743.38;7394398;19;20351;-70
2023/06/19 09:10:21;;;;;;;10.30;9.40;;;;;;;25.33;46.03;100747.03;7393861;19;20357;-69
2023/06/19 09:13:00;;;;;;;9.48;8.55;;;;;;;25.32;45.57;100748.84;7395589;19;20023;-68
2023/06/19 09:15:33;;;;;;;10.63;9.63;;;;;;;25.32;45.85;100748.00;7393911;19;20045;-68
2023/06/19 09:18:04;;;;;;;10.25;9.15;;;;;;;25.32;45.87;100748.00;7395077;19;20007;-68
2023/06/19 09:20:43;;;;;;;10.27;9.20;;;;;;;25.32;45.62;100750.69;7394416;19;20010;-70
2023/06/19 09:23:13;;;;;;;9.80;8.90;;;;;;;25.30;45.45;100750.81;7394765;19;20486;-68
2023/06/19 09:25:52;;;;;;;9.90;9.00;;;;;;;25.27;45.59;100751.06;7395391;19;20014;-68
2023/06/19 09:28:23;;;;;;;9.73;8.82;;;;;;;25.25;45.00;100750.34;7393459;19;20082;-69
2023/06/19 09:30:56;;;;;;;10.55;9.50;;;;;;;25.22;45.40;100745.22;7394156;19;20018;-68
2023/06/19 09:33:25;;;;;;;11.77;10.55;;;;;;;25.20;45.13;100747.22;7394580;19;20015;-71
2023/06/19 09:35:53;;;;;;;10.63;9.63;;;;;;;25.17;45.43;100739.41;7394931;19;20517;-70
2023/06/19 09:38:24;;;;;;;9.73;8.88;;;;;;;25.14;45.46;100739.66;7395964;19;20025;-69
2023/06/19 09:40:55;;;;;;;10.02;9.23;;;;;;;25.11;45.46;100740.78;7394334;19;20082;-68
2023/06/19 09:43:27;;;;;;;11.32;10.07;;;;;;;25.11;45.48;100737.22;7394369;19;20022;-69
2023/06/19 09:45:58;;;;;;;10.25;9.35;;;;;;;25.09;46.17;100726.63;7394704;19;20085;-70
2023/06/19 09:48:30;;;;;;;10.05;9.23;;;;;;;25.09;45.90;100726.63;7395190;19;20029;-69
2023/06/19 09:51:03;;;;;;;10.90;9.80;;;;;;;25.09;46.37;100721.25;7393852;19;20014;-69
2023/06/19 09:53:33;;;;;;;12.30;11.10;;;;;;;25.13;46.14;100721.84;7393084;19;20390;-68
2023/06/19 09:56:04;;;;;;;11.88;10.68;;;;;;;25.16;45.87;100724.25;7393219;19;20452;-69
2023/06/19 09:58:34;;;;;;;11.70;10.60;;;;;;;25.20;46.02;100707.78;7394418;19;20370;-68
2023/06/19 10:01:03;;;;;;;11.43;10.30;;;;;;;25.28;46.04;100708.97;7395510;19;20022;-68
2023/06/19 10:03:34;;;;;;;10.80;9.80;;;;;;;25.37;45.45;100702.84;7393561;19;20025;-71
2023/06/19 10:06:03;;;;;;;11.13;9.98;;;;;;;25.47;44.96;100695.69;7394187;19;20015;-68
2023/06/19 10:08:33;;;;;;;11.45;10.25;;;;;;;25.58;44.97;100691.22;7394238;19;20014;-68
2023/06/19 10:11:04;;;;;;;11.32;10.15;;;;;;;25.68;44.92;100695.69;7392669;19;20431;-68
2023/06/19 10:13:38;;;;;;;11.75;10.45;;;;;;;25.81;44.82;100700.84;7393630;19;20070;-68
2023/06/19 10:16:07;;;;;;;13.75;10.23;;;;;;;25.95;44.59;100701.47;7392777;19;20019;-68
2023/06/19 10:18:46;;;;;;;10.77;9.43;;;;;;;26.07;43.66;100699.56;7391871;19;20421;-68
2023/06/19 10:21:19;;;;;;;10.95;9.93;;;;;;;26.18;43.66;100697.66;7393010;19;20015;-69
2023/06/19 10:23:56;;;;;;;10.87;9.80;;;;;;;26.29;42.57;100693.16;7393221;19;20019;-70
2023/06/19 10:26:37;;;;;;;9.63;8.65;;;;;;;26.37;42.78;100685.22;7393552;19;20390;-69
2023/06/19 10:29:16;;;;;;;11.07;9.70;;;;;;;26.43;43.06;100686.53;7393059;19;20500;-69
2023/06/19 10:31:45;;;;;;;13.45;12.13;;;;;;;26.48;43.11;100695.88;7398804;19;20078;-69
2023/06/19 10:34:14;;;;;;;11.60;10.55;;;;;;;26.58;43.21;100697.75;7397951;19;20014;-69
2023/06/19 10:36:43;;;;;;;10.60;9.55;;;;;;;26.64;42.22;100694.47;7398619;19;20022;-68
2023/06/19 10:39:12;;;;;;;11.77;10.60;;;;;;;26.67;42.44;100696.91;7398520;19;20082;-68
2023/06/19 10:41:44;;;;;;;11.25;10.07;;;;;;;26.70;42.21;100702.00;7401216;19;20014;-68
2023/06/19 10:44:14;;;;;;;11.60;10.60;;;;;;;26.74;42.60;100691.84;7399198;19;20386;-69
2023/06/19 10:46:43;;;;;;;10.73;9.82;;;;;;;26.80;42.36;100697.53;7400829;19;20023;-68
2023/06/19 10:49:13;;;;;;;11.45;10.45;;;;;;;26.92;42.48;100692.84;7400515;19;20114;-69
2023/06/19 10:51:43;;;;;;;11.48;10.07;;;;;;;27.07;41.98;100698.66;7400427;19;20018;-67
2023/06/19 10:54:12;;;;;;;11.80;10.57;;;;;;;27.20;41.97;100697.53;7397834;19;20021;-68
2023/06/19 10:56:40;;;;;;;10.90;9.82;;;;;;;27.30;41.82;100684.91;7400492;19;20020;-68
2023/06/19 10:59:13;;;;;;;11.93;10.73;;;;;;;27.41;41.04;100692.84;7400764;19;20363;-67
2023/06/19 11:01:44;;;;;;;11.10;10.10;;;;;;;27.48;40.84;100688.56;7399863;19;20512;-69
2023/06/19 11:04:14;;;;;;;10.77;9.68;;;;;;;27.53;40.52;100684.59;7397768;19;20034;-67
2023/06/19 11:06:44;;;;;;;11.35;10.00;;;;;;;27.59;40.56;100671.38;7398822;19;20023;-68
2023/06/19 11:09:14;;;;;;;12.20;10.13;;;;;;;27.63;39.87;100667.41;7397914;19;20010;-68
2023/06/19 11:11:44;;;;;;;10.60;9.60;;;;;;;27.68;39.74;100671.50;7396681;19;20021;-68
2023/06/19 11:14:17;;;;;;;10.65;9.65;;;;;;;27.71;40.22;100677.44;7397992;19;20496;-67
2023/06/19 11:16:48;;;;;;;10.25;9.27;;;;;;;27.75;40.09;100675.31;7396987;19;20034;-67
2023/06/19 11:19:24;;;;;;;9.35;8.55;;;;;;;27.79;40.04;100674.88;7397434;19;20018;-67
2023/06/19 11:21:54;;;;;;;10.15;9.30;;;;;;;27.83;39.74;100674.56;7396958;19;20078;-67
2023/06/19 11:24:25;;;;;;;10.10;9.10;;;;;;;27.86;39.42;100672.41;7395461;19;20025;-68